createdAt,value
2018-11-05T00:01:28.482Z,33.93
2018-11-05T00:03:56.912Z,33.63
2018-11-05T00:06:25.362Z,32.43
2018-11-05T00:08:53.837Z,35.13
2018-11-05T00:11:22.364Z,34.00
2018-11-05T00:13:50.763Z,35.07
2018-11-05T00:16:19.156Z,33.40
2018-11-05T00:18:47.487Z,33.60
2018-11-05T00:21:15.879Z,35.27
2018-11-05T00:23:44.230Z,34.90
2018-11-05T00:26:12.602Z,33.70
2018-11-05T00:28:41.071Z,33.47
2018-11-05T00:31:09.419Z,35.20
2018-11-05T00:33:37.772Z,34.80
2018-11-05T00:36:06.548Z,34.40
2018-11-05T00:38:35.002Z,33.80
2018-11-05T00:41:03.447Z,34.47
2018-11-05T00:43:31.880Z,35.13
2018-11-05T00:46:00.264Z,35.73
2018-11-05T00:48:28.642Z,35.27
2018-11-05T00:50:57.043Z,35.60
2018-11-05T00:53:25.583Z,35.43
2018-11-05T00:55:53.932Z,34.83
2018-11-05T00:58:22.335Z,36.00
2018-11-05T01:00:50.717Z,36.43
2018-11-05T01:03:19.114Z,36.50
2018-11-05T01:05:53.956Z,33.73
2018-11-05T01:08:22.332Z,35.97
2018-11-05T01:10:50.685Z,38.20
2018-11-05T01:13:19.112Z,38.13
2018-11-05T01:15:47.474Z,38.43
2018-11-05T01:18:15.933Z,37.67
2018-11-05T01:20:44.275Z,37.93
2018-11-05T01:23:12.637Z,38.23
2018-11-05T01:25:40.957Z,38.90
2018-11-05T01:28:09.326Z,37.53
2018-11-05T01:30:37.659Z,40.60
2018-11-05T01:33:06.320Z,40.03
2018-11-05T01:35:34.790Z,40.47
2018-11-05T01:38:03.169Z,41.37
2018-11-05T01:40:31.590Z,40.13
2018-11-05T01:43:00.133Z,41.37
2018-11-05T01:45:28.529Z,42.03
2018-11-05T01:47:56.935Z,40.17
2018-11-05T01:50:25.320Z,42.67
2018-11-05T01:52:53.698Z,41.83
2018-11-05T01:55:22.122Z,42.97
2018-11-05T01:57:50.499Z,40.90
2018-11-05T02:00:18.899Z,42.17
2018-11-05T02:02:47.798Z,43.40
2018-11-05T02:05:16.206Z,43.03
2018-11-05T02:07:45.534Z,42.10
2018-11-05T02:10:18.093Z,41.40
2018-11-05T02:12:46.724Z,42.70
2018-11-05T02:15:15.288Z,42.87
2018-11-05T02:17:44.983Z,42.83
2018-11-05T02:20:14.373Z,41.03
2018-11-05T02:22:42.740Z,42.83
2018-11-05T02:25:12.207Z,43.57
2018-11-05T02:27:41.001Z,44.33
2018-11-05T02:30:11.437Z,44.37
2018-11-05T02:32:39.863Z,44.40
2018-11-05T02:35:09.493Z,42.97
2018-11-05T02:37:45.398Z,43.93
2018-11-05T02:40:14.964Z,46.07
2018-11-05T02:42:43.915Z,44.17
2018-11-05T02:45:13.467Z,43.47
2018-11-05T02:47:41.843Z,45.17
2018-11-05T02:50:11.344Z,44.43
2018-11-05T02:52:40.911Z,46.93
2018-11-05T02:55:09.546Z,43.47
2018-11-05T02:57:38.171Z,47.00
2018-11-05T03:00:11.198Z,46.30
2018-11-05T03:02:39.685Z,46.60
2018-11-05T03:05:10.129Z,47.13
2018-11-05T03:07:38.521Z,47.47
2018-11-05T03:10:07.997Z,46.53
2018-11-05T03:12:36.387Z,45.93
2018-11-05T03:15:05.991Z,46.87
2018-11-05T03:17:34.615Z,46.00
2018-11-05T03:20:02.990Z,46.97
2018-11-05T03:22:31.361Z,48.03
2018-11-05T03:24:59.759Z,47.10
2018-11-05T03:27:28.399Z,48.57
2018-11-05T03:30:03.449Z,46.73
2018-11-05T03:32:31.824Z,48.70
2018-11-05T03:35:00.222Z,47.57
2018-11-05T03:37:28.570Z,46.73
2018-11-05T03:39:56.941Z,48.73
2018-11-05T03:42:25.362Z,48.13
2018-11-05T03:44:53.795Z,48.43
2018-11-05T03:47:22.246Z,48.67
2018-11-05T03:49:50.639Z,49.87
2018-11-05T03:52:19.004Z,48.63
2018-11-05T03:54:47.462Z,47.00
2018-11-05T03:57:15.834Z,46.40
2018-11-05T03:59:44.240Z,47.97
2018-11-05T04:02:12.681Z,47.17
2018-11-05T04:04:41.076Z,45.27
2018-11-05T04:07:09.633Z,47.20
2018-11-05T04:09:39.000Z,49.43
2018-11-05T04:12:07.402Z,45.03
2018-11-05T04:14:35.956Z,47.57
2018-11-05T04:17:04.504Z,47.00
2018-11-05T04:19:32.992Z,46.20
2018-11-05T04:22:01.331Z,46.10
2018-11-05T04:24:30.683Z,45.87
2018-11-05T04:26:59.071Z,46.27
2018-11-05T04:29:27.576Z,45.50
2018-11-05T04:31:56.056Z,45.50
2018-11-05T04:34:24.541Z,45.50
2018-11-05T04:36:52.981Z,47.90
2018-11-05T04:39:21.348Z,45.20
2018-11-05T04:41:49.731Z,45.90
2018-11-05T04:44:18.122Z,46.33
2018-11-05T04:46:46.509Z,48.37
2018-11-05T04:49:14.904Z,45.23
2018-11-05T04:51:43.269Z,47.37
2018-11-05T04:54:11.671Z,47.67
2018-11-05T04:56:40.141Z,44.87
2018-11-05T04:59:08.668Z,47.13
2018-11-05T05:01:37.257Z,46.53
2018-11-05T05:04:05.787Z,46.37
2018-11-05T05:06:34.173Z,45.10
2018-11-05T05:09:02.579Z,42.50
2018-11-05T05:11:31.018Z,45.10
2018-11-05T05:13:59.397Z,44.67
2018-11-05T05:16:27.772Z,43.77
2018-11-05T05:18:56.251Z,44.17
2018-11-05T05:21:24.653Z,44.03
2018-11-05T05:23:53.018Z,46.13
2018-11-05T05:26:21.416Z,43.73
2018-11-05T05:28:49.804Z,43.93
2018-11-05T05:31:18.172Z,43.63
2018-11-05T05:33:46.562Z,43.60
2018-11-05T05:36:14.952Z,42.13
2018-11-05T05:38:43.358Z,42.10
2018-11-05T05:41:11.879Z,43.70
2018-11-05T05:43:40.273Z,43.40
2018-11-05T05:46:08.709Z,43.77
2018-11-05T05:48:37.062Z,43.87
2018-11-05T05:51:05.518Z,42.07
2018-11-05T05:53:34.049Z,40.80
2018-11-05T05:56:02.563Z,42.27
2018-11-05T05:58:30.972Z,42.83
2018-11-05T06:00:59.365Z,43.40
2018-11-05T06:03:27.816Z,44.07
2018-11-05T06:05:56.265Z,42.13
2018-11-05T06:08:24.754Z,44.70
2018-11-05T06:10:53.129Z,41.83
2018-11-05T06:13:21.570Z,41.27
2018-11-05T06:15:49.996Z,43.30
2018-11-05T06:18:18.566Z,44.07
2018-11-05T06:20:47.033Z,43.47
2018-11-05T06:23:15.449Z,43.37
2018-11-05T06:25:43.884Z,42.23
2018-11-05T06:28:12.254Z,42.33
2018-11-05T06:30:40.728Z,42.53
2018-11-05T06:33:09.098Z,42.53
2018-11-05T06:35:38.186Z,43.63
2018-11-05T06:38:06.626Z,41.87
2018-11-05T06:40:35.039Z,42.17
2018-11-05T06:43:03.468Z,42.30
2018-11-05T06:45:31.928Z,42.10
2018-11-05T06:48:00.296Z,42.73
2018-11-05T06:50:28.747Z,40.87
2018-11-05T06:52:57.156Z,42.43
2018-11-05T06:55:25.642Z,41.23
2018-11-05T06:57:54.114Z,42.60
2018-11-05T07:00:23.981Z,43.20
2018-11-05T07:02:52.355Z,42.83
2018-11-05T07:05:20.908Z,42.60
2018-11-05T07:07:49.375Z,41.17
2018-11-05T07:10:24.472Z,41.33
2018-11-05T07:12:53.058Z,42.70
2018-11-05T07:15:21.529Z,43.60
2018-11-05T07:17:50.444Z,41.87
2018-11-05T07:20:20.125Z,42.20
2018-11-05T07:22:49.471Z,41.00
2018-11-05T07:25:21.165Z,43.13
2018-11-05T07:27:50.408Z,41.20
2018-11-05T07:30:21.069Z,42.83
2018-11-05T07:32:50.699Z,40.43
2018-11-05T07:35:19.201Z,42.77
2018-11-05T07:37:47.714Z,41.70
2018-11-05T07:40:17.212Z,41.03
2018-11-05T07:42:45.729Z,41.53
2018-11-05T07:45:20.448Z,40.10
2018-11-05T07:47:49.056Z,41.80
2018-11-05T07:50:18.476Z,40.80
2018-11-05T07:52:47.149Z,41.63
2018-11-05T07:55:16.809Z,41.67
2018-11-05T07:57:46.133Z,39.27
2018-11-05T08:00:20.938Z,39.30
2018-11-05T08:02:51.091Z,40.33
2018-11-05T08:05:20.534Z,42.37
2018-11-05T08:07:49.396Z,41.53
2018-11-05T08:10:17.948Z,40.73
2018-11-05T08:12:46.431Z,41.13
2018-11-05T08:15:16.133Z,41.40
2018-11-05T08:17:45.946Z,40.20
2018-11-05T08:20:14.605Z,39.83
2018-11-05T08:22:43.142Z,41.33
2018-11-05T08:25:12.752Z,41.20
2018-11-05T08:27:41.210Z,41.20
2018-11-05T08:30:13.424Z,40.67
2018-11-05T08:32:42.177Z,40.33
2018-11-05T08:35:11.601Z,36.90
2018-11-05T08:37:40.507Z,40.03
2018-11-05T08:40:13.264Z,39.97
2018-11-05T08:42:42.348Z,38.70
2018-11-05T08:45:11.736Z,38.47
2018-11-05T08:47:40.231Z,38.20
2018-11-05T08:50:10.620Z,38.40
2018-11-05T08:52:39.045Z,39.53
2018-11-05T08:55:09.542Z,38.30
2018-11-05T08:57:38.105Z,38.23
2018-11-05T09:00:13.834Z,37.63
2018-11-05T09:02:42.384Z,38.83
2018-11-05T09:05:14.442Z,37.87
2018-11-05T09:07:44.459Z,35.93
2018-11-05T09:10:13.082Z,37.03
2018-11-05T09:12:41.635Z,36.77
2018-11-05T09:15:12.150Z,34.50
2018-11-05T09:17:41.164Z,34.37
2018-11-05T09:20:10.826Z,33.63
2018-11-05T09:22:39.613Z,32.77
2018-11-05T09:25:08.673Z,34.17
2018-11-05T09:27:37.200Z,36.23
2018-11-05T09:30:09.582Z,32.83
2018-11-05T09:32:38.046Z,33.77
2018-11-05T09:35:06.834Z,35.23
2018-11-05T09:37:35.297Z,33.33
2018-11-05T09:40:04.032Z,32.70
2018-11-05T09:42:32.533Z,32.17
2018-11-05T09:45:00.967Z,34.17
2018-11-05T09:47:29.482Z,36.40
2018-11-05T09:49:57.968Z,32.63
2018-11-05T09:52:26.367Z,33.87
2018-11-05T09:54:54.788Z,33.80
2018-11-05T09:57:23.219Z,31.83
2018-11-05T09:59:51.637Z,31.67
2018-11-05T10:02:20.031Z,31.87
2018-11-05T10:04:48.799Z,31.80
2018-11-05T10:07:17.013Z,30.27
2018-11-05T10:09:45.614Z,31.30
2018-11-05T10:12:13.931Z,30.43
2018-11-05T10:14:42.385Z,31.83
2018-11-05T10:17:10.916Z,32.63
2018-11-05T10:19:39.306Z,32.40
2018-11-05T10:22:07.753Z,31.90
2018-11-05T10:24:36.277Z,32.87
2018-11-05T10:27:04.783Z,32.37
2018-11-05T10:29:33.186Z,30.43
2018-11-05T10:32:01.656Z,31.67
2018-11-05T10:34:30.086Z,31.67
2018-11-05T10:36:58.467Z,31.43
2018-11-05T10:39:26.935Z,31.20
2018-11-05T10:41:55.347Z,32.73
2018-11-05T10:44:23.845Z,32.37
2018-11-05T10:46:52.378Z,32.50
2018-11-05T10:49:20.795Z,32.30
2018-11-05T10:51:49.278Z,32.53
2018-11-05T10:54:18.231Z,32.03
2018-11-05T10:56:46.660Z,30.70
2018-11-05T10:59:15.132Z,30.30
2018-11-05T11:01:49.013Z,30.93
2018-11-05T11:04:23.073Z,31.33
2018-11-05T11:06:51.472Z,33.37
2018-11-05T11:09:19.875Z,33.03
2018-11-05T11:11:48.284Z,31.13
2018-11-05T11:14:16.706Z,32.80
2018-11-05T11:16:51.762Z,30.60
2018-11-05T11:19:20.200Z,31.07
2018-11-05T11:21:48.602Z,31.83
2018-11-05T11:24:17.383Z,31.17
2018-11-05T11:26:45.792Z,31.57
2018-11-05T11:29:14.249Z,29.90
2018-11-05T11:31:42.600Z,29.33
2018-11-05T11:34:11.117Z,29.67
2018-11-05T11:36:39.674Z,28.27
2018-11-05T11:39:09.981Z,28.47
2018-11-05T11:41:38.339Z,28.83
2018-11-05T11:44:07.228Z,29.17
2018-11-05T11:46:36.032Z,28.57
2018-11-05T11:49:05.140Z,27.53
2018-11-05T11:51:33.545Z,28.00
2018-11-05T11:54:01.998Z,27.67
2018-11-05T11:56:30.452Z,28.37
2018-11-05T11:58:58.821Z,26.73
2018-11-05T12:01:27.254Z,26.43
2018-11-05T12:03:55.746Z,26.80
2018-11-05T12:06:24.239Z,27.20
2018-11-05T12:08:52.628Z,27.37
2018-11-05T12:11:21.040Z,28.23
2018-11-05T12:13:49.413Z,28.13
2018-11-05T12:16:17.947Z,28.03
2018-11-05T12:18:46.306Z,27.50
2018-11-05T12:21:14.753Z,27.17
2018-11-05T12:23:43.138Z,26.50
2018-11-05T12:26:11.554Z,26.73
2018-11-05T12:28:39.927Z,26.57
2018-11-05T12:31:08.310Z,26.60
2018-11-05T12:33:36.667Z,26.37
2018-11-05T12:36:05.330Z,26.13
2018-11-05T12:38:33.749Z,26.70
2018-11-05T12:41:02.167Z,26.53
2018-11-05T12:43:30.633Z,26.23
2018-11-05T12:45:59.073Z,27.57
2018-11-05T12:48:27.466Z,25.07
2018-11-05T12:50:55.944Z,24.57
2018-11-05T12:53:24.313Z,25.73
2018-11-05T12:55:52.740Z,25.93
2018-11-05T12:58:21.126Z,26.90
2018-11-05T13:00:49.567Z,25.20
2018-11-05T13:03:17.922Z,26.53
2018-11-05T13:05:46.329Z,26.43
2018-11-05T13:08:14.841Z,26.30
2018-11-05T13:10:43.245Z,25.17
2018-11-05T13:13:11.701Z,25.60
2018-11-05T13:15:40.284Z,25.97
2018-11-05T13:18:08.679Z,26.23
2018-11-05T13:20:37.110Z,26.50
2018-11-05T13:23:05.561Z,26.17
2018-11-05T13:25:33.977Z,26.13
2018-11-05T13:28:02.350Z,27.27
2018-11-05T13:30:30.748Z,27.23
2018-11-05T13:32:59.141Z,26.87
2018-11-05T13:35:27.505Z,25.07
2018-11-05T13:37:56.426Z,24.73
2018-11-05T13:40:24.328Z,25.57
2018-11-05T13:42:53.076Z,25.80
2018-11-05T13:45:22.368Z,26.83
2018-11-05T13:47:51.243Z,25.77
2018-11-05T13:50:18.904Z,24.43
2018-11-05T13:52:47.211Z,24.93
2018-11-05T13:55:16.412Z,25.97
2018-11-05T13:57:45.909Z,25.40
2018-11-05T14:00:15.757Z,27.17
2018-11-05T14:02:50.706Z,24.87
2018-11-05T14:05:19.177Z,25.90
2018-11-05T14:07:47.539Z,25.83
2018-11-05T14:10:17.520Z,25.57
2018-11-05T14:12:46.473Z,27.57
2018-11-05T14:15:15.006Z,26.60
2018-11-05T14:17:44.020Z,27.03
2018-11-05T14:20:13.613Z,25.33
2018-11-05T14:22:42.722Z,25.57
2018-11-05T14:25:13.564Z,27.87
2018-11-05T14:27:42.941Z,27.00
2018-11-05T14:30:12.222Z,26.30
2018-11-05T14:32:41.761Z,27.33
2018-11-05T14:35:10.641Z,26.40
2018-11-05T14:37:39.095Z,26.13
2018-11-05T14:40:08.729Z,26.80
2018-11-05T14:42:37.338Z,27.00
2018-11-05T14:45:07.692Z,27.27
2018-11-05T14:47:36.133Z,28.33
2018-11-05T14:50:05.962Z,26.73
2018-11-05T14:52:34.428Z,29.00
2018-11-05T14:55:02.829Z,26.40
2018-11-05T14:57:31.263Z,26.50
2018-11-05T14:59:59.759Z,28.03
2018-11-05T15:02:33.562Z,27.27
2018-11-05T15:05:01.939Z,27.07
2018-11-05T15:07:30.380Z,27.63
2018-11-05T15:09:58.758Z,28.07
2018-11-05T15:12:27.126Z,27.23
2018-11-05T15:14:55.574Z,28.03
2018-11-05T15:17:24.050Z,27.30
2018-11-05T15:19:52.740Z,27.93
2018-11-05T15:22:21.780Z,26.50
2018-11-05T15:24:50.428Z,26.67
2018-11-05T15:27:18.862Z,26.53
2018-11-05T15:29:47.278Z,27.17
2018-11-05T15:32:15.673Z,27.57
2018-11-05T15:34:44.073Z,26.83
2018-11-05T15:37:12.623Z,27.17
2018-11-05T15:39:40.995Z,27.37
2018-11-05T15:42:09.406Z,27.23
2018-11-05T15:44:37.822Z,28.73
2018-11-05T15:47:06.178Z,28.33
2018-11-05T15:49:34.562Z,27.93
2018-11-05T15:52:03.344Z,27.33
2018-11-05T15:54:31.634Z,28.03
2018-11-05T15:57:00.139Z,27.67
2018-11-05T15:59:28.651Z,28.33
2018-11-05T16:02:02.023Z,28.13
2018-11-05T16:04:30.692Z,29.47
2018-11-05T16:06:59.048Z,28.10
2018-11-05T16:09:27.496Z,29.27
2018-11-05T16:11:55.850Z,27.17
2018-11-05T16:14:24.233Z,28.87
2018-11-05T16:16:52.795Z,28.63
2018-11-05T16:19:21.165Z,30.03
2018-11-05T16:21:49.569Z,27.67
2018-11-05T16:24:18.093Z,27.03
2018-11-05T16:26:46.635Z,27.67
2018-11-05T16:29:15.002Z,25.40
2018-11-05T16:31:43.371Z,24.53
2018-11-05T16:34:11.810Z,23.83
2018-11-05T16:36:40.199Z,27.98
2018-11-05T16:39:10.839Z,26.07
2018-11-05T16:41:39.740Z,23.40
2018-11-05T16:44:08.553Z,24.43
2018-11-05T16:46:37.208Z,24.10
2018-11-05T16:49:05.759Z,23.30
2018-11-05T16:51:34.141Z,23.57
2018-11-05T16:54:02.827Z,24.17
2018-11-05T16:56:31.343Z,28.60
2018-11-05T16:58:59.951Z,23.60
2018-11-05T17:01:28.785Z,22.97
2018-11-05T17:03:56.783Z,23.77
2018-11-05T17:06:25.222Z,24.13
2018-11-05T17:08:53.640Z,22.70
2018-11-05T17:11:22.172Z,24.07
2018-11-05T17:13:50.635Z,24.90
2018-11-05T17:16:19.013Z,23.70
2018-11-05T17:18:47.351Z,24.37
2018-11-05T17:21:15.712Z,23.30
2018-11-05T17:23:44.249Z,22.90
2018-11-05T17:26:12.683Z,23.13
2018-11-05T17:28:41.136Z,22.57
2018-11-05T17:31:09.787Z,23.43
2018-11-05T17:33:38.253Z,23.00
2018-11-05T17:36:06.711Z,22.07
2018-11-05T17:38:35.381Z,22.73
2018-11-05T17:41:03.795Z,23.43
2018-11-05T17:43:32.202Z,22.83
2018-11-05T17:46:00.793Z,22.27
2018-11-05T17:48:29.567Z,22.87
2018-11-05T17:50:58.028Z,23.30
2018-11-05T17:53:26.438Z,22.23
2018-11-05T17:55:54.834Z,23.00
2018-11-05T17:58:23.382Z,23.60
2018-11-05T18:00:51.771Z,23.03
2018-11-05T18:03:20.175Z,24.10
2018-11-05T18:05:48.574Z,22.87
2018-11-05T18:08:17.005Z,22.53
2018-11-05T18:10:45.691Z,21.67
2018-11-05T18:13:14.159Z,21.60
2018-11-05T18:15:42.836Z,22.70
2018-11-05T18:18:11.280Z,21.53
2018-11-05T18:20:39.650Z,21.73
2018-11-05T18:23:08.306Z,21.07
2018-11-05T18:25:36.808Z,22.60
2018-11-05T18:28:05.530Z,22.30
2018-11-05T18:30:33.985Z,20.40
2018-11-05T18:33:02.685Z,20.60
2018-11-05T18:35:31.059Z,20.67
2018-11-05T18:37:59.758Z,19.87
2018-11-05T18:40:28.243Z,21.43
2018-11-05T18:42:56.821Z,20.87
2018-11-05T18:45:25.276Z,20.00
2018-11-05T18:47:53.665Z,20.13
2018-11-05T18:50:22.131Z,20.20
2018-11-05T18:52:50.455Z,19.33
2018-11-05T18:55:19.061Z,18.70
2018-11-05T18:57:47.604Z,23.33
2018-11-05T19:00:19.521Z,21.30
2018-11-05T19:02:48.425Z,18.50
2018-11-05T19:05:17.517Z,19.77
2018-11-05T19:07:46.036Z,18.80
2018-11-05T19:10:14.500Z,17.67
2018-11-05T19:12:42.913Z,17.67
2018-11-05T19:15:12.879Z,16.10
2018-11-05T19:17:41.565Z,16.53
2018-11-05T19:20:10.021Z,17.13
2018-11-05T19:22:39.201Z,16.30
2018-11-05T19:25:09.745Z,17.43
2018-11-05T19:27:45.375Z,17.00
2018-11-05T19:30:22.302Z,17.13
2018-11-05T19:32:50.654Z,16.50
2018-11-05T19:35:19.238Z,17.47
2018-11-05T19:37:47.690Z,16.37
2018-11-05T19:40:17.184Z,16.47
2018-11-05T19:42:46.466Z,15.80
2018-11-05T19:45:16.768Z,16.53
2018-11-05T19:47:45.209Z,17.70
2018-11-05T19:50:17.212Z,16.43
2018-11-05T19:52:46.713Z,16.30
2018-11-05T19:55:16.449Z,16.10
2018-11-05T19:57:45.563Z,17.17
2018-11-05T20:00:15.905Z,16.30
2018-11-05T20:02:44.829Z,16.27
2018-11-05T20:05:13.849Z,17.17
2018-11-05T20:07:42.257Z,16.37
2018-11-05T20:10:11.528Z,16.80
2018-11-05T20:12:40.101Z,17.07
2018-11-05T20:15:09.210Z,16.10
2018-11-05T20:17:38.987Z,17.40
2018-11-05T20:20:09.736Z,18.23
2018-11-05T20:22:38.244Z,16.63
2018-11-05T20:25:07.472Z,17.07
2018-11-05T20:27:36.469Z,17.57
2018-11-05T20:30:06.237Z,17.00
2018-11-05T20:32:35.147Z,17.60
2018-11-05T20:35:03.107Z,17.10
2018-11-05T20:37:31.493Z,17.90
2018-11-05T20:40:00.091Z,16.40
2018-11-05T20:42:28.406Z,16.27
2018-11-05T20:44:56.882Z,16.17
2018-11-05T20:47:25.278Z,16.80
2018-11-05T20:49:53.757Z,16.00
2018-11-05T20:52:22.245Z,14.57
2018-11-05T20:54:50.689Z,16.43
2018-11-05T20:57:19.118Z,15.37
2018-11-05T20:59:47.603Z,16.23
2018-11-05T21:02:16.160Z,15.93
2018-11-05T21:04:44.692Z,16.60
2018-11-05T21:07:13.079Z,16.97
2018-11-05T21:09:41.532Z,16.17
2018-11-05T21:12:09.966Z,16.30
2018-11-05T21:14:44.883Z,15.57
2018-11-05T21:17:13.398Z,15.47
2018-11-05T21:19:41.816Z,15.37
2018-11-05T21:22:13.950Z,15.50
2018-11-05T21:24:42.394Z,15.40
2018-11-05T21:27:10.891Z,14.70
2018-11-05T21:29:39.282Z,14.27
2018-11-05T21:32:07.829Z,14.60
2018-11-05T21:34:36.278Z,14.67
2018-11-05T21:37:04.722Z,15.23
2018-11-05T21:39:33.171Z,13.93
2018-11-05T21:42:01.595Z,14.27
2018-11-05T21:44:30.047Z,14.67
2018-11-05T21:46:59.272Z,14.40
2018-11-05T21:49:27.720Z,14.60
2018-11-05T21:51:56.789Z,13.70
2018-11-05T21:54:25.221Z,14.03
2018-11-05T21:56:53.731Z,14.20
2018-11-05T21:59:22.184Z,13.77
2018-11-05T22:01:50.699Z,13.87
2018-11-05T22:04:19.197Z,14.70
2018-11-05T22:06:47.694Z,15.30
2018-11-05T22:09:16.133Z,14.63
2018-11-05T22:11:44.586Z,16.03
2018-11-05T22:14:13.006Z,15.30
2018-11-05T22:16:41.489Z,14.50
2018-11-05T22:19:09.941Z,13.33
2018-11-05T22:21:38.376Z,13.53
2018-11-05T22:24:06.938Z,13.60
2018-11-05T22:26:35.364Z,13.00
2018-11-05T22:29:03.826Z,14.23
2018-11-05T22:31:32.352Z,14.17
2018-11-05T22:34:00.792Z,13.10
2018-11-05T22:36:29.428Z,12.37
2018-11-05T22:38:57.909Z,12.47
2018-11-05T22:44:05.438Z,12.70
2018-11-05T22:46:33.813Z,12.37
2018-11-05T22:49:02.287Z,12.53
2018-11-05T22:51:30.657Z,11.27
2018-11-05T22:53:59.105Z,11.90
2018-11-05T22:56:27.430Z,11.40
2018-11-05T22:58:55.736Z,11.73
2018-11-05T23:01:29.520Z,11.63
2018-11-05T23:03:57.971Z,11.97
2018-11-05T23:06:26.330Z,11.30
2018-11-05T23:08:54.656Z,11.13
2018-11-05T23:11:22.979Z,11.17
2018-11-05T23:13:51.295Z,11.77
2018-11-05T23:16:19.744Z,10.93
2018-11-05T23:18:48.102Z,11.70
2018-11-05T23:21:16.441Z,10.90
2018-11-05T23:23:44.872Z,11.00
2018-11-05T23:26:13.241Z,10.90
2018-11-05T23:28:41.620Z,11.40
2018-11-05T23:31:09.923Z,11.37
2018-11-05T23:33:38.418Z,10.57
2018-11-05T23:36:06.733Z,10.87
2018-11-05T23:38:35.044Z,9.90
2018-11-05T23:41:03.410Z,10.67
2018-11-05T23:43:31.705Z,9.83
2018-11-05T23:45:59.990Z,10.47
2018-11-05T23:48:28.348Z,10.53
2018-11-05T23:50:56.725Z,10.10
2018-11-05T23:53:25.074Z,10.03
2018-11-05T23:55:53.354Z,9.77
2018-11-05T23:58:21.649Z,10.13
